Time;durP1;ratioP1;P1;durP2;ratioP2;P2;SDS_P1;SDS_P2;PMS_P1;PMS_P2;Temp;Humidity;BMP_temperature;BMP_pressure;BME280_temperature;BME280_humidity;BME280_pressure;Samples;Min_cycle;Max_cycle;Signal;HPM_P1;HPM_P2
2023/07/09 00:01:37;;;;;;;6.22;3.50;;;22.10;61.90;;;;;;5005284;28;20030;-64
2023/07/09 00:04:03;;;;;;;4.75;3.08;;;22.10;61.50;;;;;;5002588;28;20053;-64
2023/07/09 00:06:28;;;;;;;4.05;3.10;;;22.10;61.50;;;;;;5002276;28;20128;-64
2023/07/09 00:08:54;;;;;;;3.55;3.25;;;22.10;61.50;;;;;;5004405;28;20034;-64
2023/07/09 00:11:20;;;;;;;5.93;3.50;;;22.10;61.80;;;;;;5001329;28;20038;-65
2023/07/09 00:13:45;;;;;;;4.13;3.15;;;22.10;61.90;;;;;;5003206;28;20029;-64
2023/07/09 00:16:25;;;;;;;5.70;3.67;;;22.00;61.90;;;;;;5000747;28;20543;-64
2023/07/09 00:18:51;;;;;;;3.85;3.05;;;22.00;62.40;;;;;;5003379;28;21006;-64
2023/07/09 00:21:18;;;;;;;3.70;3.17;;;21.90;61.90;;;;;;5003476;28;20044;-64
2023/07/09 00:23:43;;;;;;;4.13;3.05;;;21.80;62.10;;;;;;5003992;28;20128;-64
2023/07/09 00:26:13;;;;;;;4.53;3.20;;;21.80;62.40;;;;;;5004964;28;20105;-65
2023/07/09 00:28:39;;;;;;;3.20;2.90;;;21.80;62.90;;;;;;5002774;28;20172;-64
2023/07/09 00:31:05;;;;;;;3.72;3.33;;;21.70;62.90;;;;;;5002451;28;20095;-64
2023/07/09 00:33:31;;;;;;;5.55;3.40;;;21.70;62.90;;;;;;5004647;28;20042;-64
2023/07/09 00:35:57;;;;;;;4.18;3.40;;;21.60;63.30;;;;;;5003029;28;20494;-64
2023/07/09 00:38:24;;;;;;;4.50;3.60;;;21.60;63.40;;;;;;5003581;28;20125;-64
2023/07/09 00:41:17;;;;;;;4.03;3.40;;;21.60;63.60;;;;;;5002594;28;20055;-63
2023/07/09 00:43:43;;;;;;;4.75;3.42;;;21.60;64.70;;;;;;5007320;28;20049;-64
2023/07/09 00:46:25;;;;;;;4.47;3.38;;;21.50;63.70;;;;;;5008007;28;20056;-64
2023/07/09 00:48:58;;;;;;;8.00;3.85;;;21.50;64.80;;;;;;5006965;28;20034;-64
2023/07/09 00:51:25;;;;;;;4.95;3.60;;;21.40;64.70;;;;;;5005423;28;20029;-65
2023/07/09 00:53:55;;;;;;;4.70;3.25;;;21.40;64.20;;;;;;5007907;28;20030;-64
2023/07/09 00:56:33;;;;;;;4.15;3.38;;;21.30;64.30;;;;;;5005852;28;20513;-64
2023/07/09 00:59:04;;;;;;;6.95;3.58;;;21.20;65.00;;;;;;5007515;28;20037;-64
2023/07/09 01:01:32;;;;;;;5.80;3.42;;;21.10;65.00;;;;;;5009636;28;20476;-64
2023/07/09 01:04:00;;;;;;;5.15;3.67;;;21.10;65.20;;;;;;5006183;28;20163;-64
2023/07/09 01:06:41;;;;;;;4.50;3.50;;;21.10;65.30;;;;;;5006656;28;20038;-64
2023/07/09 01:09:07;;;;;;;4.22;3.40;;;21.00;65.70;;;;;;5006997;28;20058;-64
2023/07/09 01:11:33;;;;;;;5.18;3.53;;;20.90;65.30;;;;;;5004480;28;20382;-63
2023/07/09 01:14:02;;;;;;;4.45;3.03;;;20.90;65.50;;;;;;5006427;28;20040;-64
2023/07/09 01:16:33;;;;;;;3.83;3.00;;;20.90;66.00;;;;;;5005419;28;20079;-65
2023/07/09 01:19:00;;;;;;;4.57;3.60;;;20.80;66.20;;;;;;5005940;28;20037;-64
2023/07/09 01:21:26;;;;;;;3.95;3.55;;;20.80;66.00;;;;;;5007424;28;20042;-62
2023/07/09 01:23:52;;;;;;;6.38;3.33;;;20.70;66.30;;;;;;5006197;28;20026;-64
2023/07/09 01:26:21;;;;;;;4.82;3.20;;;20.70;66.20;;;;;;5007857;28;20532;-64
2023/07/09 01:28:47;;;;;;;4.72;3.00;;;20.60;66.40;;;;;;5006414;28;20053;-64
2023/07/09 01:31:14;;;;;;;3.72;3.17;;;20.60;66.50;;;;;;5005015;28;20030;-64
2023/07/09 01:33:41;;;;;;;3.80;3.03;;;20.60;66.90;;;;;;5006109;28;20038;-64
2023/07/09 01:36:09;;;;;;;3.40;3.10;;;20.60;67.00;;;;;;5006123;28;20121;-65
2023/07/09 01:38:35;;;;;;;6.03;3.35;;;20.50;67.10;;;;;;5006088;28;20081;-64
2023/07/09 01:41:02;;;;;;;4.82;3.30;;;20.50;67.10;;;;;;5006166;28;20120;-63
2023/07/09 01:43:29;;;;;;;4.05;3.17;;;20.50;67.10;;;;;;5006545;28;20113;-63
2023/07/09 01:45:57;;;;;;;3.90;3.35;;;20.40;67.20;;;;;;5004293;28;20088;-64
2023/07/09 01:48:24;;;;;;;4.38;3.20;;;20.40;67.30;;;;;;5006283;28;20480;-64
2023/07/09 01:50:50;;;;;;;3.55;3.05;;;20.30;67.30;;;;;;5004851;28;20088;-64
2023/07/09 01:53:19;;;;;;;4.20;2.90;;;20.30;67.60;;;;;;5003719;28;20061;-63
2023/07/09 01:55:44;;;;;;;4.95;3.00;;;20.20;67.70;;;;;;5006922;28;20042;-64
2023/07/09 01:58:10;;;;;;;5.07;3.22;;;20.20;67.90;;;;;;5006796;28;20030;-63
2023/07/09 02:00:37;;;;;;;4.63;3.33;;;20.20;68.00;;;;;;5005070;28;20065;-64
2023/07/09 02:03:04;;;;;;;6.95;3.55;;;20.20;67.90;;;;;;5005772;28;20052;-65
2023/07/09 02:05:31;;;;;;;4.00;3.15;;;20.10;68.00;;;;;;5005291;28;20038;-63
2023/07/09 02:07:58;;;;;;;3.30;3.00;;;20.10;68.30;;;;;;5004882;28;20026;-62
2023/07/09 02:10:23;;;;;;;3.50;3.20;;;20.10;68.40;;;;;;5004147;28;20043;-64
2023/07/09 02:12:49;;;;;;;3.67;2.85;;;20.10;68.30;;;;;;5003774;28;20034;-64
2023/07/09 02:15:16;;;;;;;5.32;3.05;;;20.10;69.00;;;;;;5006650;28;20176;-63
2023/07/09 02:17:42;;;;;;;5.80;2.95;;;20.00;68.20;;;;;;5005363;28;20042;-64
2023/07/09 02:20:09;;;;;;;7.03;2.92;;;20.00;68.40;;;;;;5004375;28;20077;-64
2023/07/09 02:22:36;;;;;;;4.72;3.17;;;20.00;68.50;;;;;;5004109;28;20114;-65
2023/07/09 02:25:02;;;;;;;5.15;3.35;;;20.00;68.50;;;;;;5002944;28;20034;-63
2023/07/09 02:27:28;;;;;;;7.43;3.20;;;19.90;68.40;;;;;;5006215;28;20116;-64
2023/07/09 02:29:54;;;;;;;6.32;3.33;;;19.90;68.40;;;;;;5003753;28;20463;-64
2023/07/09 02:32:25;;;;;;;6.82;3.58;;;19.90;68.50;;;;;;5006559;28;20045;-65
2023/07/09 02:34:52;;;;;;;3.60;2.88;;;19.90;68.90;;;;;;5004894;28;20153;-65
2023/07/09 02:37:20;;;;;;;4.13;3.03;;;20.00;68.50;;;;;;5007048;28;20073;-64
2023/07/09 02:39:46;;;;;;;4.10;2.70;;;20.00;68.80;;;;;;5004208;28;20041;-64
2023/07/09 02:42:14;;;;;;;3.45;3.10;;;20.00;68.60;;;;;;5004117;28;20092;-64
2023/07/09 02:44:41;;;;;;;3.75;3.22;;;20.00;68.80;;;;;;5003436;28;20322;-65
2023/07/09 02:47:07;;;;;;;4.25;3.40;;;20.10;68.80;;;;;;5006024;28;20030;-64
2023/07/09 02:49:33;;;;;;;3.97;3.47;;;20.10;68.70;;;;;;5005727;28;20041;-64
2023/07/09 02:51:59;;;;;;;4.80;3.53;;;20.10;68.70;;;;;;5004346;28;20108;-64
2023/07/09 02:54:25;;;;;;;3.38;2.95;;;20.00;68.90;;;;;;5004924;28;20161;-64
2023/07/09 02:56:51;;;;;;;4.55;3.10;;;19.90;69.10;;;;;;5003234;28;20459;-64
2023/07/09 02:59:16;;;;;;;6.32;3.08;;;19.90;69.30;;;;;;5006328;28;20036;-64
2023/07/09 03:01:42;;;;;;;4.10;3.22;;;19.80;69.30;;;;;;5003266;28;20041;-64
2023/07/09 03:04:08;;;;;;;4.85;3.30;;;19.80;69.50;;;;;;5004295;28;20092;-64
2023/07/09 03:06:35;;;;;;;3.67;3.20;;;19.70;69.50;;;;;;5005660;28;20042;-64
2023/07/09 03:09:02;;;;;;;3.72;3.30;;;19.60;69.60;;;;;;5005206;28;20490;-64
2023/07/09 03:11:30;;;;;;;4.88;3.42;;;19.60;69.80;;;;;;5004547;28;20030;-64
2023/07/09 03:13:57;;;;;;;4.13;3.30;;;19.50;70.20;;;;;;5001873;28;20608;-64
2023/07/09 03:16:22;;;;;;;5.45;3.28;;;19.50;70.40;;;;;;5004440;28;20066;-63
2023/07/09 03:18:48;;;;;;;3.95;3.25;;;19.50;70.60;;;;;;5003748;28;20061;-64
2023/07/09 03:21:14;;;;;;;3.22;2.92;;;19.50;70.40;;;;;;5004546;28;20038;-64
2023/07/09 03:23:40;;;;;;;3.58;3.20;;;19.50;70.20;;;;;;5005197;28;20037;-63
2023/07/09 03:26:06;;;;;;;3.55;3.25;;;19.50;70.30;;;;;;5001926;28;20035;-63
2023/07/09 03:28:32;;;;;;;5.10;3.58;;;19.50;70.20;;;;;;5005743;28;20034;-63
2023/07/09 03:30:58;;;;;;;3.88;3.47;;;19.50;70.00;;;;;;5002802;28;20529;-65
2023/07/09 03:33:24;;;;;;;7.13;3.25;;;19.50;70.10;;;;;;5004934;28;20141;-64
2023/07/09 03:35:51;;;;;;;7.50;3.53;;;19.60;70.00;;;;;;5003543;28;20124;-63
2023/07/09 03:38:17;;;;;;;3.80;3.30;;;19.60;69.90;;;;;;5004042;28;20056;-64
2023/07/09 03:40:43;;;;;;;4.57;3.63;;;19.60;70.00;;;;;;5003326;28;20026;-64
2023/07/09 03:43:10;;;;;;;5.20;3.50;;;19.60;70.10;;;;;;5004423;28;20085;-64
2023/07/09 03:45:36;;;;;;;4.30;3.35;;;19.60;70.10;;;;;;5002565;28;20531;-63
2023/07/09 03:48:03;;;;;;;4.00;3.20;;;19.60;70.00;;;;;;5004346;28;20030;-63
2023/07/09 03:50:28;;;;;;;4.28;3.05;;;19.60;70.20;;;;;;5002820;28;20068;-63
2023/07/09 03:52:54;;;;;;;5.00;3.85;;;19.50;70.40;;;;;;5004015;28;20074;-63
2023/07/09 03:55:20;;;;;;;4.05;3.17;;;19.40;70.60;;;;;;5004553;28;20042;-64
2023/07/09 03:57:46;;;;;;;4.60;3.70;;;19.40;70.50;;;;;;5003297;28;20345;-64
2023/07/09 04:00:13;;;;;;;3.97;3.58;;;19.30;70.90;;;;;;5005130;28;20645;-64
2023/07/09 04:02:40;;;;;;;6.40;4.00;;;19.30;71.30;;;;;;5002924;28;20046;-64
2023/07/09 04:05:08;;;;;;;6.30;3.88;;;19.30;71.40;;;;;;5003157;28;20061;-63
2023/07/09 04:07:34;;;;;;;7.07;3.88;;;19.30;71.50;;;;;;5002967;28;20199;-63
2023/07/09 04:09:59;;;;;;;5.22;4.18;;;19.30;71.60;;;;;;5004816;28;20038;-64
2023/07/09 04:12:25;;;;;;;5.10;3.92;;;19.20;71.80;;;;;;5000894;28;20026;-63
2023/07/09 04:14:50;;;;;;;5.65;3.83;;;19.20;72.10;;;;;;5003852;28;20087;-64
2023/07/09 04:17:16;;;;;;;5.15;3.80;;;19.20;72.20;;;;;;5005499;28;20461;-63
2023/07/09 04:19:41;;;;;;;7.03;3.97;;;19.20;72.20;;;;;;5008201;28;20037;-64
2023/07/09 04:22:10;;;;;;;6.38;4.10;;;19.20;72.20;;;;;;5007549;28;20129;-64
2023/07/09 04:24:35;;;;;;;4.55;3.80;;;19.20;72.30;;;;;;5008141;28;20040;-64
2023/07/09 04:27:02;;;;;;;5.35;3.92;;;19.30;72.70;;;;;;5008763;28;20042;-64
2023/07/09 04:29:33;;;;;;;5.75;3.78;;;19.30;72.80;;;;;;5006409;28;20128;-63
2023/07/09 04:31:59;;;;;;;5.28;3.60;;;19.30;72.80;;;;;;5007199;28;20038;-64
2023/07/09 04:34:25;;;;;;;4.47;3.53;;;19.30;72.80;;;;;;5008497;28;20048;-64
2023/07/09 04:36:50;;;;;;;5.40;3.53;;;19.30;72.80;;;;;;5007707;28;20042;-63
2023/07/09 04:39:16;;;;;;;5.72;4.13;;;19.30;73.00;;;;;;5008154;28;20057;-63
2023/07/09 04:41:41;;;;;;;4.93;3.92;;;19.40;72.90;;;;;;5007268;28;20041;-64
2023/07/09 04:44:07;;;;;;;5.78;4.03;;;19.40;72.80;;;;;;5006289;28;20548;-64
2023/07/09 04:46:33;;;;;;;5.47;4.13;;;19.40;72.80;;;;;;5007250;28;20042;-64
2023/07/09 04:49:00;;;;;;;5.50;4.13;;;19.50;72.90;;;;;;5006845;28;20193;-64
2023/07/09 04:51:25;;;;;;;4.93;3.63;;;19.50;73.10;;;;;;5005780;28;20413;-64
2023/07/09 04:53:51;;;;;;;6.05;4.15;;;19.60;73.20;;;;;;5008262;28;20045;-64
2023/07/09 04:56:17;;;;;;;4.70;3.78;;;19.60;73.30;;;;;;5008065;28;20045;-64
2023/07/09 04:58:43;;;;;;;5.63;3.78;;;19.60;73.10;;;;;;5007025;28;20033;-64
2023/07/09 05:01:09;;;;;;;5.95;3.90;;;19.60;73.40;;;;;;5006976;28;20037;-63
2023/07/09 05:03:34;;;;;;;6.25;3.85;;;19.60;73.60;;;;;;5006732;28;20038;-64
2023/07/09 05:06:00;;;;;;;5.47;3.90;;;19.70;73.80;;;;;;5008227;28;20137;-65
2023/07/09 05:08:25;;;;;;;5.97;3.78;;;19.70;73.50;;;;;;5006854;28;20042;-63
2023/07/09 05:10:52;;;;;;;6.22;3.70;;;19.70;73.50;;;;;;5005271;28;20152;-62
2023/07/09 05:13:19;;;;;;;4.72;3.80;;;19.80;73.70;;;;;;5005359;28;20057;-63
2023/07/09 05:15:46;;;;;;;5.47;3.85;;;19.80;73.80;;;;;;5007133;28;20120;-63
2023/07/09 05:18:15;;;;;;;4.75;4.03;;;19.90;73.80;;;;;;5006771;28;20041;-63
2023/07/09 05:20:41;;;;;;;5.95;4.22;;;19.90;73.90;;;;;;5003218;28;20026;-63
2023/07/09 05:23:09;;;;;;;5.97;3.88;;;20.00;73.50;;;;;;5007169;28;20035;-63
2023/07/09 05:25:34;;;;;;;5.88;4.10;;;20.10;73.70;;;;;;5002966;28;20571;-64
2023/07/09 05:28:00;;;;;;;4.38;3.53;;;20.20;73.70;;;;;;5006438;28;20080;-63
2023/07/09 05:30:26;;;;;;;5.90;3.72;;;20.30;73.50;;;;;;5003681;28;20753;-64
2023/07/09 05:32:53;;;;;;;4.95;3.50;;;20.30;73.30;;;;;;5006655;28;20041;-64
2023/07/09 05:35:19;;;;;;;4.30;3.50;;;20.40;72.80;;;;;;5007608;28;20046;-63
2023/07/09 05:37:45;;;;;;;9.25;4.22;;;20.50;72.60;;;;;;5005716;28;20078;-64
2023/07/09 05:40:11;;;;;;;5.35;3.92;;;20.60;72.50;;;;;;5005875;28;20057;-63
2023/07/09 05:42:36;;;;;;;4.22;3.80;;;20.70;72.70;;;;;;5005996;28;20049;-64
2023/07/09 05:45:03;;;;;;;4.53;3.55;;;20.80;72.60;;;;;;5005776;28;20497;-62
2023/07/09 05:47:28;;;;;;;6.32;3.80;;;20.90;72.30;;;;;;5005330;28;20034;-63
2023/07/09 05:49:54;;;;;;;5.18;4.20;;;21.00;72.10;;;;;;5006979;28;20160;-63
2023/07/09 05:52:22;;;;;;;5.55;3.80;;;21.10;72.20;;;;;;5005160;28;20069;-64
2023/07/09 05:54:52;;;;;;;5.05;4.13;;;21.20;72.00;;;;;;5005806;28;20045;-64
2023/07/09 05:57:18;;;;;;;4.80;3.60;;;21.30;71.80;;;;;;5006652;28;20042;-63
2023/07/09 05:59:44;;;;;;;5.18;3.63;;;21.40;71.60;;;;;;5006052;28;20044;-62
2023/07/09 06:02:19;;;;;;;5.57;3.65;;;21.50;71.30;;;;;;5006568;28;20068;-64
2023/07/09 06:04:45;;;;;;;5.15;3.88;;;21.60;71.40;;;;;;5006192;28;20117;-63
2023/07/09 06:07:12;;;;;;;4.97;3.90;;;21.70;71.00;;;;;;5006212;28;20063;-64
2023/07/09 06:09:37;;;;;;;3.97;3.63;;;21.80;71.10;;;;;;5006075;28;20042;-63
2023/07/09 06:12:04;;;;;;;5.80;3.67;;;21.90;71.20;;;;;;5003130;28;20037;-64
2023/07/09 06:14:31;;;;;;;5.40;3.45;;;22.10;71.40;;;;;;5003407;28;20048;-64
2023/07/09 06:16:58;;;;;;;4.70;3.25;;;22.10;71.40;;;;;;5005732;28;20606;-64
2023/07/09 06:19:23;;;;;;;4.45;3.63;;;22.20;71.10;;;;;;5004258;28;20057;-64
2023/07/09 06:21:49;;;;;;;5.07;3.42;;;22.30;70.90;;;;;;5007016;28;20484;-64
2023/07/09 06:24:14;;;;;;;5.53;3.63;;;22.40;70.70;;;;;;5004793;28;20505;-65
2023/07/09 06:26:40;;;;;;;5.35;3.38;;;22.60;70.70;;;;;;5006300;28;20049;-64
2023/07/09 06:29:06;;;;;;;4.95;3.30;;;22.60;70.40;;;;;;5005587;28;20038;-63
2023/07/09 06:31:31;;;;;;;5.03;3.08;;;22.80;70.20;;;;;;5006901;28;20129;-64
2023/07/09 06:33:57;;;;;;;5.65;3.53;;;22.90;70.50;;;;;;5004489;28;20153;-64
2023/07/09 06:36:22;;;;;;;4.40;3.22;;;23.00;69.90;;;;;;5005325;28;20144;-65
2023/07/09 06:38:48;;;;;;;4.40;3.30;;;23.10;69.30;;;;;;5004458;28;20041;-64
2023/07/09 06:41:15;;;;;;;3.92;3.47;;;23.20;68.50;;;;;;5006104;28;20029;-64
2023/07/09 06:43:40;;;;;;;4.63;3.38;;;23.30;68.10;;;;;;5004668;28;20052;-64
2023/07/09 06:46:09;;;;;;;4.55;3.38;;;23.40;67.60;;;;;;5005653;28;20042;-64
2023/07/09 06:48:35;;;;;;;5.72;3.17;;;23.50;67.50;;;;;;5005112;28;20115;-63
2023/07/09 06:51:00;;;;;;;3.55;2.97;;;23.70;67.60;;;;;;5003483;28;20058;-64
2023/07/09 06:53:27;;;;;;;3.53;3.20;;;23.70;67.30;;;;;;5005277;28;20049;-63
2023/07/09 06:55:55;;;;;;;4.45;3.38;;;23.80;66.90;;;;;;5004778;28;20602;-64
2023/07/09 06:58:21;;;;;;;3.95;3.50;;;23.90;66.90;;;;;;5004775;28;20083;-64
2023/07/09 07:00:49;;;;;;;4.63;3.20;;;24.00;66.60;;;;;;5002288;28;20068;-64
2023/07/09 07:03:15;;;;;;;4.10;3.17;;;24.10;66.30;;;;;;5003555;28;20042;-64
2023/07/09 07:05:45;;;;;;;5.65;3.20;;;24.20;66.10;;;;;;5004781;28;20026;-63
2023/07/09 07:08:10;;;;;;;5.32;3.70;;;24.40;65.90;;;;;;5007127;28;20045;-64
2023/07/09 07:10:36;;;;;;;3.60;3.30;;;24.50;65.50;;;;;;5003384;28;20026;-64
2023/07/09 07:13:02;;;;;;;5.88;3.65;;;24.60;65.70;;;;;;5004981;28;20026;-64
2023/07/09 07:15:27;;;;;;;3.85;3.25;;;24.70;64.80;;;;;;5005632;28;20019;-64
2023/07/09 07:17:53;;;;;;;4.15;3.28;;;24.80;64.50;;;;;;5004239;28;20073;-64
2023/07/09 07:20:19;;;;;;;4.15;3.10;;;25.00;64.40;;;;;;5005268;28;20045;-64
2023/07/09 07:22:45;;;;;;;4.05;2.90;;;25.00;64.10;;;;;;5004606;28;20397;-64
2023/07/09 07:25:11;;;;;;;6.40;3.35;;;25.20;64.00;;;;;;5007049;28;20034;-65
2023/07/09 07:27:37;;;;;;;3.60;3.30;;;25.30;63.30;;;;;;5003630;28;20045;-64
2023/07/09 07:30:03;;;;;;;5.50;2.95;;;25.40;63.00;;;;;;5004099;28;20026;-64
2023/07/09 07:32:29;;;;;;;3.92;3.05;;;25.50;63.20;;;;;;5005238;28;20424;-63
2023/07/09 07:34:54;;;;;;;5.32;2.90;;;25.70;62.60;;;;;;5005773;28;20045;-64
2023/07/09 07:37:21;;;;;;;6.18;2.80;;;25.80;62.40;;;;;;5005146;28;20038;-65
2023/07/09 07:39:49;;;;;;;3.83;3.00;;;25.90;62.50;;;;;;5006114;28;20452;-64
2023/07/09 07:42:15;;;;;;;3.42;2.70;;;26.10;62.20;;;;;;5005215;28;20041;-64
2023/07/09 07:44:40;;;;;;;5.63;3.22;;;26.20;62.00;;;;;;5003346;28;20034;-64
2023/07/09 07:47:06;;;;;;;4.15;2.85;;;26.30;61.60;;;;;;5005464;28;20038;-64
2023/07/09 07:49:32;;;;;;;3.30;2.92;;;26.40;60.80;;;;;;5005598;28;20042;-65
2023/07/09 07:51:58;;;;;;;5.65;3.03;;;26.50;60.50;;;;;;5003821;28;20083;-64
2023/07/09 07:54:24;;;;;;;3.13;2.83;;;26.60;60.30;;;;;;5004771;28;20030;-64
2023/07/09 07:56:49;;;;;;;5.70;3.08;;;26.70;60.50;;;;;;5005413;28;20045;-64
2023/07/09 07:59:17;;;;;;;3.50;2.90;;;26.90;60.70;;;;;;5005458;28;20076;-64
2023/07/09 08:01:43;;;;;;;5.82;3.03;;;26.90;59.80;;;;;;5004164;28;20033;-65
2023/07/09 08:04:08;;;;;;;5.15;2.90;;;27.10;59.90;;;;;;5003562;28;20044;-63
2023/07/09 08:06:35;;;;;;;4.07;2.67;;;27.20;59.50;;;;;;5005080;28;20049;-64
2023/07/09 08:09:01;;;;;;;4.13;2.90;;;27.30;59.10;;;;;;5004164;28;20386;-64
2023/07/09 08:11:27;;;;;;;3.65;2.63;;;27.50;58.50;;;;;;5003307;28;20034;-64
2023/07/09 08:13:53;;;;;;;3.65;2.80;;;27.60;58.70;;;;;;5003283;28;20033;-64
2023/07/09 08:16:19;;;;;;;3.28;2.80;;;27.70;58.30;;;;;;5004500;28;20046;-64
2023/07/09 08:18:45;;;;;;;5.50;2.80;;;27.90;58.30;;;;;;5002827;28;20034;-64
2023/07/09 08:21:10;;;;;;;3.67;3.20;;;28.00;58.00;;;;;;5003817;28;20034;-64
2023/07/09 08:23:36;;;;;;;4.10;3.00;;;28.10;57.70;;;;;;5004672;28;20057;-64
2023/07/09 08:26:03;;;;;;;3.40;2.67;;;28.30;57.60;;;;;;5005495;28;20117;-64
2023/07/09 08:28:30;;;;;;;4.95;2.75;;;28.50;57.10;;;;;;5005593;28;20483;-65
2023/07/09 08:30:56;;;;;;;2.97;2.35;;;28.60;56.70;;;;;;5005814;28;20378;-64
2023/07/09 08:33:23;;;;;;;2.78;2.42;;;28.80;56.80;;;;;;5005666;28;20037;-64
2023/07/09 08:35:50;;;;;;;3.25;2.78;;;28.90;56.40;;;;;;5004284;28;20038;-65
2023/07/09 08:38:16;;;;;;;2.80;2.60;;;29.00;56.10;;;;;;5005664;28;20053;-64
2023/07/09 08:40:49;;;;;;;2.92;2.65;;;29.20;55.90;;;;;;5004753;28;20030;-64
2023/07/09 08:43:45;;;;;;;4.65;2.45;;;29.30;55.50;;;;;;5005965;28;20060;-65
2023/07/09 08:46:29;;;;;;;3.55;2.30;;;29.50;54.60;;;;;;4981855;28;20029;-63
2023/07/09 08:48:56;;;;;;;3.53;2.25;;;29.60;53.90;;;;;;5004457;28;20164;-65
2023/07/09 08:51:33;;;;;;;4.45;2.33;;;29.80;53.70;;;;;;5003285;28;20517;-64
2023/07/09 08:54:00;;;;;;;3.30;2.67;;;29.90;53.40;;;;;;5003424;28;20048;-64
2023/07/09 08:56:31;;;;;;;4.28;2.72;;;30.00;53.30;;;;;;5005161;28;20038;-64
2023/07/09 08:59:01;;;;;;;6.95;2.50;;;30.10;52.60;;;;;;5003446;28;20112;-65
2023/07/09 09:01:42;;;;;;;4.43;2.78;;;30.20;52.60;;;;;;5003657;28;20045;-63
2023/07/09 09:04:29;;;;;;;2.92;2.45;;;30.30;52.30;;;;;;5004412;28;20085;-64
2023/07/09 09:07:05;;;;;;;3.38;2.28;;;30.50;51.80;;;;;;5007425;28;20026;-64
2023/07/09 09:09:39;;;;;;;4.65;2.50;;;30.60;51.30;;;;;;5006741;28;20038;-64
2023/07/09 09:12:24;;;;;;;;;;;30.80;51.10;;;;;;5007175;28;20065;-64
2023/07/09 09:15:04;;;;;;;3.58;2.20;;;30.90;51.60;;;;;;5006720;28;19918;-65
2023/07/09 09:17:33;;;;;;;2.80;2.45;;;31.00;51.40;;;;;;5008411;28;20395;-64
2023/07/09 09:20:04;;;;;;;4.45;2.55;;;31.10;51.10;;;;;;5006731;28;20038;-66
2023/07/09 09:22:42;;;;;;;3.20;2.40;;;31.20;50.50;;;;;;5008034;28;20433;-64
2023/07/09 09:25:30;;;;;;;2.45;2.25;;;31.30;50.10;;;;;;5006555;28;20556;-65
2023/07/09 09:27:56;;;;;;;5.00;2.30;;;31.40;49.50;;;;;;5006580;28;20034;-64
2023/07/09 09:30:24;;;;;;;3.58;2.70;;;31.50;49.70;;;;;;5004569;28;20092;-64
2023/07/09 09:32:59;;;;;;;2.97;2.40;;;31.50;49.10;;;;;;5007508;28;20033;-64
2023/07/09 09:35:31;;;;;;;2.55;2.35;;;31.60;47.70;;;;;;5008214;28;20038;-64
2023/07/09 09:37:58;;;;;;;3.08;2.20;;;31.60;47.80;;;;;;5005268;28;20043;-64
2023/07/09 09:40:26;;;;;;;3.50;2.10;;;31.70;47.80;;;;;;5007155;28;20481;-64
2023/07/09 09:42:58;;;;;;;5.43;2.38;;;31.90;47.00;;;;;;5006616;28;20045;-65
2023/07/09 09:45:33;;;;;;;2.63;2.20;;;32.00;46.20;;;;;;5005845;28;20033;-66
2023/07/09 09:48:01;;;;;;;2.30;2.10;;;32.00;44.10;;;;;;5007257;28;20056;-64
2023/07/09 09:50:31;;;;;;;4.68;2.30;;;32.10;44.70;;;;;;5005973;28;20041;-65
2023/07/09 09:52:58;;;;;;;3.58;2.25;;;32.20;45.60;;;;;;5007059;28;20115;-65
2023/07/09 09:55:28;;;;;;;2.33;2.13;;;32.30;45.30;;;;;;5006502;28;20037;-65
2023/07/09 09:57:54;;;;;;;5.00;2.58;;;32.40;45.60;;;;;;5006286;28;20038;-65
2023/07/09 10:00:24;;;;;;;2.88;2.10;;;32.40;45.10;;;;;;5004924;28;20038;-64
2023/07/09 10:02:56;;;;;;;3.30;2.10;;;32.50;44.90;;;;;;5007412;28;20030;-64
2023/07/09 10:05:59;;;;;;;3.85;2.13;;;32.60;44.80;;;;;;5006684;28;20085;-64
2023/07/09 10:08:49;;;;;;;2.28;1.98;;;32.70;44.30;;;;;;4989727;28;20030;-64
2023/07/09 10:11:26;;;;;;;2.30;1.98;;;32.80;44.70;;;;;;5004596;28;20026;-64
2023/07/09 10:13:56;;;;;;;2.22;1.80;;;32.90;44.00;;;;;;5005650;28;20096;-65
2023/07/09 10:16:40;;;;;;;3.72;2.05;;;32.90;43.50;;;;;;5005607;28;20045;-64
2023/07/09 10:19:09;;;;;;;;;;;33.00;42.90;;;;;;5006493;28;20563;-65
2023/07/09 10:21:42;;;;;;;2.40;1.85;;;33.10;45.20;;;;;;5005351;28;19928;-65
2023/07/09 10:24:38;;;;;;;3.13;1.88;;;33.10;43.80;;;;;;5007380;28;20085;-65
2023/07/09 10:27:16;;;;;;;2.65;2.00;;;33.20;42.50;;;;;;5006996;28;20476;-65
2023/07/09 10:29:50;;;;;;;3.63;2.17;;;33.20;42.20;;;;;;5007020;28;20038;-64
2023/07/09 10:32:29;;;;;;;4.55;1.95;;;33.30;42.10;;;;;;5007528;28;20037;-65
2023/07/09 10:35:10;;;;;;;2.70;1.73;;;33.30;40.80;;;;;;5004989;28;20038;-64
2023/07/09 10:38:16;;;;;;;2.17;1.83;;;33.40;40.80;;;;;;5006416;28;20052;-63
2023/07/09 10:40:52;;;;;;;3.25;2.08;;;33.50;40.70;;;;;;5006378;28;20045;-64
2023/07/09 10:43:33;;;;;;;2.22;1.90;;;33.50;40.70;;;;;;5006134;28;20448;-65
2023/07/09 10:46:25;;;;;;;2.38;1.90;;;33.50;40.70;;;;;;5003916;28;20030;-64
2023/07/09 10:48:53;;;;;;;3.78;2.25;;;33.60;40.60;;;;;;4996499;28;20042;-65
2023/07/09 10:51:32;;;;;;;3.63;2.25;;;33.70;40.80;;;;;;5004621;28;20510;-64
2023/07/09 10:54:00;;;;;;;3.53;2.15;;;33.70;40.90;;;;;;5007000;28;20030;-64
2023/07/09 10:56:29;;;;;;;3.47;2.10;;;33.80;41.30;;;;;;5006012;28;20065;-65
2023/07/09 10:59:21;;;;;;;3.22;2.28;;;33.80;40.80;;;;;;5003617;28;20042;-64
2023/07/09 11:01:54;;;;;;;2.60;2.10;;;33.90;40.90;;;;;;5005828;28;20137;-65
2023/07/09 11:04:46;;;;;;;3.10;2.03;;;33.90;40.30;;;;;;5006743;28;20536;-65
2023/07/09 11:07:17;;;;;;;2.65;2.00;;;33.90;40.70;;;;;;5006024;28;20030;-66
2023/07/09 11:09:46;;;;;;;2.47;2.17;;;33.90;40.50;;;;;;5003872;28;20029;-65
2023/07/09 11:12:35;;;;;;;4.85;2.38;;;34.00;40.40;;;;;;5002079;28;20034;-65
2023/07/09 11:15:09;;;;;;;3.10;2.17;;;34.00;39.50;;;;;;5005130;28;20038;-64
2023/07/09 11:17:37;;;;;;;2.40;2.20;;;34.10;39.60;;;;;;5005984;28;20509;-65
2023/07/09 11:20:16;;;;;;;3.42;2.05;;;34.10;39.80;;;;;;5005471;28;20678;-65
2023/07/09 11:22:50;;;;;;;3.97;2.30;;;34.20;39.40;;;;;;5005371;28;20038;-65
2023/07/09 11:25:28;;;;;;;3.15;2.28;;;34.20;39.60;;;;;;5005129;28;20056;-66
2023/07/09 11:28:05;;;;;;;4.45;2.38;;;34.30;38.80;;;;;;5006312;28;20030;-65
2023/07/09 11:30:30;;;;;;;4.28;2.42;;;34.30;38.80;;;;;;5005252;28;20030;-64
2023/07/09 11:32:58;;;;;;;4.63;2.13;;;34.30;39.40;;;;;;5005956;28;20034;-65
2023/07/09 11:35:26;;;;;;;3.42;2.10;;;34.30;39.10;;;;;;5006825;28;20038;-65
2023/07/09 11:37:53;;;;;;;3.33;2.08;;;34.30;39.10;;;;;;5005722;28;20038;-65
2023/07/09 11:40:21;;;;;;;2.72;2.20;;;34.30;39.40;;;;;;5004442;28;20038;-65
2023/07/09 11:42:51;;;;;;;3.60;2.60;;;34.30;39.20;;;;;;5005526;28;20050;-65
2023/07/09 11:45:22;;;;;;;5.20;2.50;;;34.30;38.20;;;;;;5003551;28;20212;-65
2023/07/09 11:48:12;;;;;;;3.03;2.55;;;34.30;38.20;;;;;;5003706;28;20034;-65
2023/07/09 11:50:48;;;;;;;3.65;2.40;;;34.30;38.00;;;;;;5004590;28;20413;-65
2023/07/09 11:53:37;;;;;;;3.42;2.40;;;34.30;37.90;;;;;;5005080;28;20537;-64
2023/07/09 11:56:03;;;;;;;3.83;2.70;;;34.30;37.80;;;;;;4997062;28;20038;-65
2023/07/09 11:58:28;;;;;;;4.07;2.50;;;34.30;37.90;;;;;;5004954;28;20041;-65
2023/07/09 12:00:56;;;;;;;3.33;2.40;;;34.30;37.80;;;;;;5002804;28;20030;-65
2023/07/09 12:03:33;;;;;;;7.28;2.33;;;34.30;37.40;;;;;;5004138;28;20030;-65
2023/07/09 12:06:16;;;;;;;3.15;2.42;;;34.30;37.60;;;;;;5004249;28;20572;-64
2023/07/09 12:08:44;;;;;;;2.95;2.25;;;34.30;37.10;;;;;;5004805;28;20042;-65
2023/07/09 12:11:19;;;;;;;4.72;2.33;;;34.30;37.40;;;;;;5002812;28;20183;-65
2023/07/09 12:13:45;;;;;;;4.95;2.10;;;34.40;36.30;;;;;;5005743;28;20560;-65
2023/07/09 12:16:26;;;;;;;3.00;2.25;;;34.40;37.80;;;;;;5002277;28;20133;-65
2023/07/09 12:18:52;;;;;;;2.70;1.98;;;34.50;36.60;;;;;;5002994;28;20081;-65
2023/07/09 12:21:19;;;;;;;2.22;2.08;;;34.50;37.40;;;;;;5003723;28;20045;-65
2023/07/09 12:23:45;;;;;;;2.55;2.03;;;34.60;36.80;;;;;;5004785;28;20429;-65
2023/07/09 12:26:14;;;;;;;4.35;2.88;;;34.60;36.50;;;;;;5005896;28;20037;-65
2023/07/09 12:28:40;;;;;;;2.50;2.30;;;34.60;36.00;;;;;;5004544;28;20046;-65
2023/07/09 12:31:15;;;;;;;4.03;2.40;;;34.60;35.90;;;;;;5004322;28;20114;-65
2023/07/09 12:33:49;;;;;;;5.85;2.47;;;34.60;35.50;;;;;;5003537;28;20073;-65
2023/07/09 12:36:17;;;;;;;3.20;2.17;;;34.60;35.20;;;;;;5005633;28;20048;-65
2023/07/09 12:38:48;;;;;;;3.00;2.20;;;34.70;36.10;;;;;;5007440;28;20053;-64
2023/07/09 12:41:22;;;;;;;3.30;2.20;;;34.70;36.20;;;;;;5007930;28;20215;-65
2023/07/09 12:43:49;;;;;;;2.65;2.20;;;34.70;36.50;;;;;;5008367;28;20034;-65
2023/07/09 12:46:15;;;;;;;3.58;2.20;;;34.80;36.70;;;;;;5006967;28;20029;-65
2023/07/09 12:48:41;;;;;;;3.05;2.17;;;34.90;36.10;;;;;;5007814;28;20121;-65
2023/07/09 12:51:08;;;;;;;3.50;2.40;;;34.90;35.90;;;;;;5004664;28;20916;-65
2023/07/09 12:53:36;;;;;;;4.15;2.63;;;34.90;35.40;;;;;;5007493;28;20628;-65
2023/07/09 12:56:02;;;;;;;4.25;2.40;;;34.90;35.50;;;;;;5007815;28;20077;-65
2023/07/09 12:58:31;;;;;;;3.20;2.60;;;35.00;35.50;;;;;;5007160;28;20029;-66